Terminal Aerodrome Forecast
Issued by NWS

Home | Current Version | Previous Version | Text Only | Print | Product List | Glossary On
Versions: 1 2 3 4 5 6 7 8 9 10 11 12 13 14 15 16 17 18 19 20 21 22 23 24 25
000
FTUS43 KIND 300521
TAFHUF
TAF
KHUF 300521Z 3006/0106 15009KT 5SM SHRA VCTS OVC070CB
     FM301200 17011KT 6SM -SHRA BKN030
     FM301700 18015G23KT 5SM -SHRA OVC030
     FM301900 17016G24KT 6SM SHRA VCTS OVC040CB
     FM010000 16018G26KT 5SM SHRA OVC035
     FM010200 18014G27KT 6SM SHRA OVC030=

USA.gov is the U.S. government's official web portal to all federal, state and local government web resources and services.